sensor_id;sensor_type;location;lat;lon;timestamp;temperature;humidity
17762;DHT22;9005;48.838;10.112;2023-04-06T00:00:08;0.00;99.90
17762;DHT22;9005;48.838;10.112;2023-04-06T00:02:35;0.00;99.90
17762;DHT22;9005;48.838;10.112;2023-04-06T00:05:02;0.00;1.00
17762;DHT22;9005;48.838;10.112;2023-04-06T00:07:28;2.20;99.90
17762;DHT22;9005;48.838;10.112;2023-04-06T00:09:55;-0.10;99.90
17762;DHT22;9005;48.838;10.112;2023-04-06T00:12:22;-0.30;99.90
17762;DHT22;9005;48.838;10.112;2023-04-06T00:14:50;-0.20;99.90
17762;DHT22;9005;48.838;10.112;2023-04-06T00:17:17;-0.10;99.90
17762;DHT22;9005;48.838;10.112;2023-04-06T00:19:43;0.00;99.90
17762;DHT22;9005;48.838;10.112;2023-04-06T00:22:10;-0.40;99.90
17762;DHT22;9005;48.838;10.112;2023-04-06T00:24:37;-0.20;99.90
17762;DHT22;9005;48.838;10.112;2023-04-06T00:27:04;1.40;1.00
17762;DHT22;9005;48.838;10.112;2023-04-06T00:29:30;-0.20;99.90
17762;DHT22;9005;48.838;10.112;2023-04-06T00:31:58;-0.10;99.90
17762;DHT22;9005;48.838;10.112;2023-04-06T00:34:25;-0.10;1.00
17762;DHT22;9005;48.838;10.112;2023-04-06T00:36:52;-0.20;1.00
17762;DHT22;9005;48.838;10.112;2023-04-06T00:39:18;-0.10;1.00
17762;DHT22;9005;48.838;10.112;2023-04-06T00:41:49;-0.40;1.00
17762;DHT22;9005;48.838;10.112;2023-04-06T00:44:15;-0.20;1.00
17762;DHT22;9005;48.838;10.112;2023-04-06T00:46:42;-0.20;1.00
17762;DHT22;9005;48.838;10.112;2023-04-06T00:49:10;-0.10;1.00
17762;DHT22;9005;48.838;10.112;2023-04-06T00:51:37;-0.20;1.00
17762;DHT22;9005;48.838;10.112;2023-04-06T00:54:04;-0.20;1.00
17762;DHT22;9005;48.838;10.112;2023-04-06T00:56:32;0.10;1.00
17762;DHT22;9005;48.838;10.112;2023-04-06T00:58:59;-0.10;1.00
17762;DHT22;9005;48.838;10.112;2023-04-06T01:01:26;-0.20;1.00
17762;DHT22;9005;48.838;10.112;2023-04-06T01:03:53;-0.30;1.00
17762;DHT22;9005;48.838;10.112;2023-04-06T01:06:22;-0.10;1.00
17762;DHT22;9005;48.838;10.112;2023-04-06T01:08:48;-0.10;1.00
17762;DHT22;9005;48.838;10.112;2023-04-06T01:11:16;-0.10;99.90
17762;DHT22;9005;48.838;10.112;2023-04-06T01:13:43;0.10;99.90
17762;DHT22;9005;48.838;10.112;2023-04-06T01:16:10;0.10;99.90
17762;DHT22;9005;48.838;10.112;2023-04-06T01:18:37;0.00;99.90
17762;DHT22;9005;48.838;10.112;2023-04-06T01:21:04;0.10;99.90
17762;DHT22;9005;48.838;10.112;2023-04-06T01:23:35;0.50;99.90
17762;DHT22;9005;48.838;10.112;2023-04-06T01:26:02;0.00;99.90
17762;DHT22;9005;48.838;10.112;2023-04-06T01:28:28;0.10;99.90
17762;DHT22;9005;48.838;10.112;2023-04-06T01:30:55;0.10;99.90
17762;DHT22;9005;48.838;10.112;2023-04-06T01:33:22;0.00;1.00
17762;DHT22;9005;48.838;10.112;2023-04-06T01:35:48;0.40;1.00
17762;DHT22;9005;48.838;10.112;2023-04-06T01:38:15;0.00;1.00
17762;DHT22;9005;48.838;10.112;2023-04-06T01:40:43;-0.20;1.00
17762;DHT22;9005;48.838;10.112;2023-04-06T01:43:10;-0.20;1.00
17762;DHT22;9005;48.838;10.112;2023-04-06T01:45:37;-0.20;1.00
17762;DHT22;9005;48.838;10.112;2023-04-06T01:48:04;0.00;1.00
17762;DHT22;9005;48.838;10.112;2023-04-06T01:50:31;-0.30;1.00
17762;DHT22;9005;48.838;10.112;2023-04-06T01:52:57;-0.40;1.00
17762;DHT22;9005;48.838;10.112;2023-04-06T01:55:24;-0.70;1.00
17762;DHT22;9005;48.838;10.112;2023-04-06T02:00:20;-0.40;1.00
17762;DHT22;9005;48.838;10.112;2023-04-06T02:02:46;-0.10;1.00
17762;DHT22;9005;48.838;10.112;2023-04-06T02:05:13;-0.40;1.00
17762;DHT22;9005;48.838;10.112;2023-04-06T02:07:40;-0.30;1.00
17762;DHT22;9005;48.838;10.112;2023-04-06T02:10:11;-0.40;1.00
17762;DHT22;9005;48.838;10.112;2023-04-06T02:12:38;-0.40;1.00
17762;DHT22;9005;48.838;10.112;2023-04-06T02:15:08;-0.20;1.00
17762;DHT22;9005;48.838;10.112;2023-04-06T02:17:34;-0.40;1.00
17762;DHT22;9005;48.838;10.112;2023-04-06T02:20:01;-0.30;1.00
17762;DHT22;9005;48.838;10.112;2023-04-06T02:22:28;-0.40;1.00
17762;DHT22;9005;48.838;10.112;2023-04-06T02:24:54;-0.40;1.00
17762;DHT22;9005;48.838;10.112;2023-04-06T02:27:21;-0.40;1.00
17762;DHT22;9005;48.838;10.112;2023-04-06T02:29:48;-0.50;1.00
17762;DHT22;9005;48.838;10.112;2023-04-06T02:32:16;-0.40;1.00
17762;DHT22;9005;48.838;10.112;2023-04-06T02:34:43;-0.50;1.00
17762;DHT22;9005;48.838;10.112;2023-04-06T02:37:10;-0.50;1.00
17762;DHT22;9005;48.838;10.112;2023-04-06T02:39:37;-0.60;1.00
17762;DHT22;9005;48.838;10.112;2023-04-06T02:42:03;-0.50;1.00
17762;DHT22;9005;48.838;10.112;2023-04-06T02:44:30;-0.30;1.00
17762;DHT22;9005;48.838;10.112;2023-04-06T02:46:57;-0.60;1.00
17762;DHT22;9005;48.838;10.112;2023-04-06T02:49:25;-0.70;1.00
17762;DHT22;9005;48.838;10.112;2023-04-06T02:51:52;-0.60;1.00
17762;DHT22;9005;48.838;10.112;2023-04-06T02:54:19;-0.70;1.00
17762;DHT22;9005;48.838;10.112;2023-04-06T02:56:45;-0.50;1.00
17762;DHT22;9005;48.838;10.112;2023-04-06T02:59:12;-0.60;1.00
17762;DHT22;9005;48.838;10.112;2023-04-06T03:01:39;-0.60;1.00
17762;DHT22;9005;48.838;10.112;2023-04-06T03:04:05;-0.60;1.00
17762;DHT22;9005;48.838;10.112;2023-04-06T03:06:34;-0.60;1.00
17762;DHT22;9005;48.838;10.112;2023-04-06T03:09:02;-0.60;1.00
17762;DHT22;9005;48.838;10.112;2023-04-06T03:11:28;-0.60;1.00
17762;DHT22;9005;48.838;10.112;2023-04-06T03:13:55;-0.60;1.00
17762;DHT22;9005;48.838;10.112;2023-04-06T03:16:22;-0.60;1.00
17762;DHT22;9005;48.838;10.112;2023-04-06T03:18:48;-0.70;1.00
17762;DHT22;9005;48.838;10.112;2023-04-06T03:21:15;-0.20;1.00
17762;DHT22;9005;48.838;10.112;2023-04-06T03:23:43;-0.60;1.00
17762;DHT22;9005;48.838;10.112;2023-04-06T03:26:10;-0.60;1.00
17762;DHT22;9005;48.838;10.112;2023-04-06T03:28:37;-0.60;1.00
17762;DHT22;9005;48.838;10.112;2023-04-06T03:31:03;-0.70;1.00
17762;DHT22;9005;48.838;10.112;2023-04-06T03:33:30;-0.70;1.00
17762;DHT22;9005;48.838;10.112;2023-04-06T03:35:57;-0.60;1.00
17762;DHT22;9005;48.838;10.112;2023-04-06T03:38:24;-0.70;1.00
17762;DHT22;9005;48.838;10.112;2023-04-06T03:40:52;-0.70;1.00
17762;DHT22;9005;48.838;10.112;2023-04-06T03:43:18;-0.80;1.00
17762;DHT22;9005;48.838;10.112;2023-04-06T03:45:45;-1.10;1.00
17762;DHT22;9005;48.838;10.112;2023-04-06T03:48:12;-0.80;1.00
17762;DHT22;9005;48.838;10.112;2023-04-06T03:50:38;-0.50;1.00
17762;DHT22;9005;48.838;10.112;2023-04-06T03:53:05;-0.70;1.00
17762;DHT22;9005;48.838;10.112;2023-04-06T03:55:32;-0.60;1.00
17762;DHT22;9005;48.838;10.112;2023-04-06T03:58:00;-0.70;1.00
17762;DHT22;9005;48.838;10.112;2023-04-06T04:00:27;-0.70;1.00
17762;DHT22;9005;48.838;10.112;2023-04-06T04:02:54;-0.60;1.00
17762;DHT22;9005;48.838;10.112;2023-04-06T04:05:21;-0.70;1.00
17762;DHT22;9005;48.838;10.112;2023-04-06T04:07:50;-0.80;1.00
17762;DHT22;9005;48.838;10.112;2023-04-06T04:10:17;-1.00;1.00
17762;DHT22;9005;48.838;10.112;2023-04-06T04:12:44;-1.10;1.00
17762;DHT22;9005;48.838;10.112;2023-04-06T04:15:12;-1.10;1.00
17762;DHT22;9005;48.838;10.112;2023-04-06T04:17:39;-1.10;1.00
17762;DHT22;9005;48.838;10.112;2023-04-06T04:20:06;-1.20;1.00
17762;DHT22;9005;48.838;10.112;2023-04-06T04:22:33;-1.20;1.00
17762;DHT22;9005;48.838;10.112;2023-04-06T04:25:00;-1.30;1.00
17762;DHT22;9005;48.838;10.112;2023-04-06T04:27:27;-1.40;1.00
17762;DHT22;9005;48.838;10.112;2023-04-06T04:29:53;-1.60;1.00
17762;DHT22;9005;48.838;10.112;2023-04-06T04:32:22;-1.70;20.00
17762;DHT22;9005;48.838;10.112;2023-04-06T04:34:52;-1.80;55.30
17762;DHT22;9005;48.838;10.112;2023-04-06T04:37:19;-1.80;68.60
17762;DHT22;9005;48.838;10.112;2023-04-06T04:39:46;-1.90;91.40
17762;DHT22;9005;48.838;10.112;2023-04-06T04:42:13;-2.00;93.50
17762;DHT22;9005;48.838;10.112;2023-04-06T04:44:39;-2.00;99.90
17762;DHT22;9005;48.838;10.112;2023-04-06T04:47:06;-2.00;99.90
17762;DHT22;9005;48.838;10.112;2023-04-06T04:49:34;-2.00;99.90
17762;DHT22;9005;48.838;10.112;2023-04-06T04:52:01;-2.00;99.60
17762;DHT22;9005;48.838;10.112;2023-04-06T04:54:28;-2.00;99.90
17762;DHT22;9005;48.838;10.112;2023-04-06T04:56:55;-2.00;97.60
17762;DHT22;9005;48.838;10.112;2023-04-06T04:59:22;-2.10;99.90
17762;DHT22;9005;48.838;10.112;2023-04-06T05:01:48;-2.10;97.30
17762;DHT22;9005;48.838;10.112;2023-04-06T05:04:15;-2.20;99.90
17762;DHT22;9005;48.838;10.112;2023-04-06T05:06:43;-2.20;99.90
17762;DHT22;9005;48.838;10.112;2023-04-06T05:09:10;-2.50;99.90
17762;DHT22;9005;48.838;10.112;2023-04-06T05:11:37;-2.20;99.90
17762;DHT22;9005;48.838;10.112;2023-04-06T05:14:03;-2.20;99.90
17762;DHT22;9005;48.838;10.112;2023-04-06T05:16:32;-2.20;99.90
17762;DHT22;9005;48.838;10.112;2023-04-06T05:18:59;-2.10;99.90
17762;DHT22;9005;48.838;10.112;2023-04-06T05:21:25;-2.00;99.90
17762;DHT22;9005;48.838;10.112;2023-04-06T05:23:54;-2.00;99.90
17762;DHT22;9005;48.838;10.112;2023-04-06T05:26:21;-2.00;99.90
17762;DHT22;9005;48.838;10.112;2023-04-06T05:28:48;-1.90;99.90
17762;DHT22;9005;48.838;10.112;2023-04-06T05:31:15;-1.90;99.90
17762;DHT22;9005;48.838;10.112;2023-04-06T05:33:41;-1.80;96.30
17762;DHT22;9005;48.838;10.112;2023-04-06T05:36:08;-1.70;94.00
17762;DHT22;9005;48.838;10.112;2023-04-06T05:38:35;-1.80;93.10
17762;DHT22;9005;48.838;10.112;2023-04-06T05:41:03;-1.60;65.60
17762;DHT22;9005;48.838;10.112;2023-04-06T05:45:58;-1.20;77.50
17762;DHT22;9005;48.838;10.112;2023-04-06T05:48:24;-1.10;23.70
17762;DHT22;9005;48.838;10.112;2023-04-06T05:50:51;-1.10;1.00
17762;DHT22;9005;48.838;10.112;2023-04-06T05:53:18;-1.10;1.00
17762;DHT22;9005;48.838;10.112;2023-04-06T05:55:46;-1.10;1.00
17762;DHT22;9005;48.838;10.112;2023-04-06T05:58:14;-1.00;2.00
17762;DHT22;9005;48.838;10.112;2023-04-06T06:10:32;0.00;1.00
17762;DHT22;9005;48.838;10.112;2023-04-06T06:12:59;-0.10;1.00
17762;DHT22;9005;48.838;10.112;2023-04-06T06:15:27;0.00;1.00
17762;DHT22;9005;48.838;10.112;2023-04-06T06:17:54;0.10;1.00
17762;DHT22;9005;48.838;10.112;2023-04-06T06:20:20;0.20;1.00
17762;DHT22;9005;48.838;10.112;2023-04-06T06:22:47;0.30;1.00
17762;DHT22;9005;48.838;10.112;2023-04-06T06:25:14;0.40;1.00
17762;DHT22;9005;48.838;10.112;2023-04-06T06:27:41;0.50;1.00
17762;DHT22;9005;48.838;10.112;2023-04-06T06:30:08;0.60;1.00
17762;DHT22;9005;48.838;10.112;2023-04-06T07:09:26;3.50;99.90
17762;DHT22;9005;48.838;10.112;2023-04-06T07:11:53;3.40;99.90
17762;DHT22;9005;48.838;10.112;2023-04-06T07:14:22;3.40;1.00
17762;DHT22;9005;48.838;10.112;2023-04-06T07:16:48;3.30;1.00
17762;DHT22;9005;48.838;10.112;2023-04-06T07:19:16;3.40;1.00
17762;DHT22;9005;48.838;10.112;2023-04-06T07:21:43;3.50;1.00
17762;DHT22;9005;48.838;10.112;2023-04-06T07:24:11;3.60;1.00
17762;DHT22;9005;48.838;10.112;2023-04-06T07:26:37;3.70;99.90
17762;DHT22;9005;48.838;10.112;2023-04-06T07:29:04;3.80;99.90
17762;DHT22;9005;48.838;10.112;2023-04-06T07:31:31;3.90;99.90
17762;DHT22;9005;48.838;10.112;2023-04-06T07:33:57;4.10;99.90
17762;DHT22;9005;48.838;10.112;2023-04-06T07:36:24;4.20;99.90
17762;DHT22;9005;48.838;10.112;2023-04-06T07:38:51;4.30;99.90
17762;DHT22;9005;48.838;10.112;2023-04-06T07:41:19;4.40;99.90
17762;DHT22;9005;48.838;10.112;2023-04-06T07:43:46;4.20;99.90
17762;DHT22;9005;48.838;10.112;2023-04-06T07:46:12;4.60;99.90
17762;DHT22;9005;48.838;10.112;2023-04-06T07:48:39;4.70;99.90
17762;DHT22;9005;48.838;10.112;2023-04-06T07:51:06;4.80;99.90
17762;DHT22;9005;48.838;10.112;2023-04-06T07:53:34;4.90;99.90
17762;DHT22;9005;48.838;10.112;2023-04-06T07:56:01;5.10;1.00
17762;DHT22;9005;48.838;10.112;2023-04-06T07:58:29;5.30;94.20
17762;DHT22;9005;48.838;10.112;2023-04-06T08:00:55;5.50;93.50
17762;DHT22;9005;48.838;10.112;2023-04-06T08:03:23;5.60;88.20
17762;DHT22;9005;48.838;10.112;2023-04-06T08:05:51;5.60;86.20
17762;DHT22;9005;48.838;10.112;2023-04-06T08:08:18;5.70;78.50
17762;DHT22;9005;48.838;10.112;2023-04-06T08:13:13;6.20;90.60
17762;DHT22;9005;48.838;10.112;2023-04-06T08:15:41;6.40;91.20
17762;DHT22;9005;48.838;10.112;2023-04-06T08:23:02;6.50;91.90
17762;DHT22;9005;48.838;10.112;2023-04-06T08:25:29;6.40;68.00
17762;DHT22;9005;48.838;10.112;2023-04-06T08:27:56;6.70;86.80
17762;DHT22;9005;48.838;10.112;2023-04-06T08:30:23;6.60;78.50
17762;DHT22;9005;48.838;10.112;2023-04-06T08:32:51;6.40;76.30
17762;DHT22;9005;48.838;10.112;2023-04-06T08:35:18;7.20;73.90
17762;DHT22;9005;48.838;10.112;2023-04-06T08:37:45;6.60;76.20
17762;DHT22;9005;48.838;10.112;2023-04-06T08:40:12;7.20;77.40
17762;DHT22;9005;48.838;10.112;2023-04-06T08:42:40;7.20;70.00
17762;DHT22;9005;48.838;10.112;2023-04-06T08:45:08;7.20;69.90
17762;DHT22;9005;48.838;10.112;2023-04-06T08:47:36;7.20;69.30
17762;DHT22;9005;48.838;10.112;2023-04-06T08:50:05;7.40;60.90
17762;DHT22;9005;48.838;10.112;2023-04-06T08:52:33;7.40;57.70
17762;DHT22;9005;48.838;10.112;2023-04-06T08:55:00;7.40;56.40
17762;DHT22;9005;48.838;10.112;2023-04-06T08:57:27;7.60;53.80
17762;DHT22;9005;48.838;10.112;2023-04-06T08:59:55;8.20;52.30
17762;DHT22;9005;48.838;10.112;2023-04-06T09:02:23;7.80;50.90
17762;DHT22;9005;48.838;10.112;2023-04-06T09:04:52;7.70;47.90
17762;DHT22;9005;48.838;10.112;2023-04-06T09:07:21;7.60;48.10
17762;DHT22;9005;48.838;10.112;2023-04-06T09:09:47;7.60;47.50
17762;DHT22;9005;48.838;10.112;2023-04-06T09:12:25;7.60;47.20
17762;DHT22;9005;48.838;10.112;2023-04-06T09:14:53;7.70;48.40
17762;DHT22;9005;48.838;10.112;2023-04-06T09:17:20;7.80;49.80
17762;DHT22;9005;48.838;10.112;2023-04-06T09:19:48;7.80;51.00
17762;DHT22;9005;48.838;10.112;2023-04-06T09:22:15;7.90;49.20
17762;DHT22;9005;48.838;10.112;2023-04-06T09:24:44;8.00;52.30
17762;DHT22;9005;48.838;10.112;2023-04-06T09:27:11;8.10;53.70
17762;DHT22;9005;48.838;10.112;2023-04-06T09:29:38;8.40;54.20
17762;DHT22;9005;48.838;10.112;2023-04-06T09:32:05;7.80;52.90
17762;DHT22;9005;48.838;10.112;2023-04-06T09:34:33;8.50;51.40
17762;DHT22;9005;48.838;10.112;2023-04-06T09:37:00;8.60;51.70
17762;DHT22;9005;48.838;10.112;2023-04-06T09:39:27;8.60;57.20
17762;DHT22;9005;48.838;10.112;2023-04-06T09:41:55;8.50;58.80
17762;DHT22;9005;48.838;10.112;2023-04-06T09:44:22;8.80;65.10
17762;DHT22;9005;48.838;10.112;2023-04-06T09:46:53;8.60;52.80
17762;DHT22;9005;48.838;10.112;2023-04-06T09:49:21;8.70;50.80
17762;DHT22;9005;48.838;10.112;2023-04-06T09:51:53;8.90;51.70
17762;DHT22;9005;48.838;10.112;2023-04-06T09:54:22;8.70;50.70
17762;DHT22;9005;48.838;10.112;2023-04-06T09:56:51;8.70;50.10
17762;DHT22;9005;48.838;10.112;2023-04-06T09:59:36;8.90;50.20
17762;DHT22;9005;48.838;10.112;2023-04-06T10:02:05;8.90;49.70
17762;DHT22;9005;48.838;10.112;2023-04-06T10:04:38;8.80;48.30
17762;DHT22;9005;48.838;10.112;2023-04-06T10:07:07;9.60;54.50
17762;DHT22;9005;48.838;10.112;2023-04-06T10:09:36;10.80;59.40
17762;DHT22;9005;48.838;10.112;2023-04-06T10:12:04;11.80;54.30
17762;DHT22;9005;48.838;10.112;2023-04-06T10:14:33;13.20;56.10
17762;DHT22;9005;48.838;10.112;2023-04-06T10:17:03;15.10;47.30
17762;DHT22;9005;48.838;10.112;2023-04-06T10:19:36;15.50;40.20
17762;DHT22;9005;48.838;10.112;2023-04-06T10:22:05;17.10;35.70
17762;DHT22;9005;48.838;10.112;2023-04-06T10:24:32;17.90;33.00
17762;DHT22;9005;48.838;10.112;2023-04-06T10:27:01;19.40;30.60
17762;DHT22;9005;48.838;10.112;2023-04-06T10:29:33;20.40;27.00
17762;DHT22;9005;48.838;10.112;2023-04-06T10:32:06;20.80;23.80
17762;DHT22;9005;48.838;10.112;2023-04-06T10:34:34;20.40;20.90
17762;DHT22;9005;48.838;10.112;2023-04-06T10:37:11;19.80;21.00
17762;DHT22;9005;48.838;10.112;2023-04-06T10:39:45;18.10;20.00
17762;DHT22;9005;48.838;10.112;2023-04-06T10:42:12;16.70;22.00
17762;DHT22;9005;48.838;10.112;2023-04-06T10:44:43;16.40;22.20
17762;DHT22;9005;48.838;10.112;2023-04-06T10:47:16;16.30;22.50
17762;DHT22;9005;48.838;10.112;2023-04-06T10:49:44;16.50;21.90
17762;DHT22;9005;48.838;10.112;2023-04-06T10:52:10;16.80;21.90
17762;DHT22;9005;48.838;10.112;2023-04-06T10:54:41;17.40;23.50
17762;DHT22;9005;48.838;10.112;2023-04-06T10:57:09;19.40;21.60
17762;DHT22;9005;48.838;10.112;2023-04-06T10:59:36;20.70;20.00
17762;DHT22;9005;48.838;10.112;2023-04-06T11:02:05;21.30;19.80
17762;DHT22;9005;48.838;10.112;2023-04-06T11:04:31;22.30;20.20
17762;DHT22;9005;48.838;10.112;2023-04-06T11:06:58;23.40;17.60
17762;DHT22;9005;48.838;10.112;2023-04-06T11:09:25;22.90;20.20
17762;DHT22;9005;48.838;10.112;2023-04-06T11:11:53;22.00;21.30
17762;DHT22;9005;48.838;10.112;2023-04-06T11:14:20;21.30;25.80
17762;DHT22;9005;48.838;10.112;2023-04-06T11:16:47;21.60;20.20
17762;DHT22;9005;48.838;10.112;2023-04-06T11:19:17;20.10;17.10
17762;DHT22;9005;48.838;10.112;2023-04-06T11:21:45;19.40;18.60
17762;DHT22;9005;48.838;10.112;2023-04-06T11:24:14;19.40;18.80
17762;DHT22;9005;48.838;10.112;2023-04-06T11:26:43;19.60;19.10
17762;DHT22;9005;48.838;10.112;2023-04-06T11:29:11;20.00;18.60
17762;DHT22;9005;48.838;10.112;2023-04-06T11:31:44;20.80;20.40
17762;DHT22;9005;48.838;10.112;2023-04-06T11:34:13;21.00;17.50
17762;DHT22;9005;48.838;10.112;2023-04-06T11:36:42;21.20;17.10
17762;DHT22;9005;48.838;10.112;2023-04-06T11:39:09;21.40;16.60
17762;DHT22;9005;48.838;10.112;2023-04-06T11:41:36;21.50;16.90
17762;DHT22;9005;48.838;10.112;2023-04-06T11:44:03;22.00;16.20
17762;DHT22;9005;48.838;10.112;2023-04-06T11:46:31;22.10;17.00
17762;DHT22;9005;48.838;10.112;2023-04-06T11:48:59;23.30;17.60
17762;DHT22;9005;48.838;10.112;2023-04-06T11:51:26;24.10;16.40
17762;DHT22;9005;48.838;10.112;2023-04-06T11:53:55;23.20;16.30
17762;DHT22;9005;48.838;10.112;2023-04-06T11:56:26;22.40;16.10
17762;DHT22;9005;48.838;10.112;2023-04-06T11:58:54;21.10;16.50
17762;DHT22;9005;48.838;10.112;2023-04-06T12:01:21;19.90;17.40
17762;DHT22;9005;48.838;10.112;2023-04-06T12:03:48;20.00;17.90
17762;DHT22;9005;48.838;10.112;2023-04-06T12:06:15;19.80;17.80
17762;DHT22;9005;48.838;10.112;2023-04-06T12:08:42;19.10;32.30
17762;DHT22;9005;48.838;10.112;2023-04-06T12:11:11;19.40;19.20
17762;DHT22;9005;48.838;10.112;2023-04-06T12:13:38;20.10;18.60
17762;DHT22;9005;48.838;10.112;2023-04-06T12:16:05;19.90;17.40
17762;DHT22;9005;48.838;10.112;2023-04-06T12:18:32;19.90;18.40
17762;DHT22;9005;48.838;10.112;2023-04-06T12:20:58;20.10;18.30
17762;DHT22;9005;48.838;10.112;2023-04-06T12:23:25;21.30;18.10
17762;DHT22;9005;48.838;10.112;2023-04-06T12:25:52;22.10;16.90
17762;DHT22;9005;48.838;10.112;2023-04-06T12:28:21;22.90;17.30
17762;DHT22;9005;48.838;10.112;2023-04-06T12:30:52;23.90;16.40
17762;DHT22;9005;48.838;10.112;2023-04-06T12:33:19;24.90;16.80
17762;DHT22;9005;48.838;10.112;2023-04-06T12:35:46;26.30;16.90
17762;DHT22;9005;48.838;10.112;2023-04-06T12:38:12;26.60;14.70
17762;DHT22;9005;48.838;10.112;2023-04-06T12:40:39;27.50;15.70
17762;DHT22;9005;48.838;10.112;2023-04-06T12:43:06;27.60;14.60
17762;DHT22;9005;48.838;10.112;2023-04-06T12:45:35;28.00;14.40
17762;DHT22;9005;48.838;10.112;2023-04-06T12:48:02;27.90;13.20
17762;DHT22;9005;48.838;10.112;2023-04-06T12:52:55;26.70;13.30
17762;DHT22;9005;48.838;10.112;2023-04-06T12:55:22;26.00;13.70
17762;DHT22;9005;48.838;10.112;2023-04-06T12:57:49;24.60;14.30
17762;DHT22;9005;48.838;10.112;2023-04-06T13:00:17;23.90;15.10
17762;DHT22;9005;48.838;10.112;2023-04-06T13:02:45;24.20;14.20
17762;DHT22;9005;48.838;10.112;2023-04-06T13:05:13;23.90;15.00
17762;DHT22;9005;48.838;10.112;2023-04-06T13:07:44;24.10;14.90
17762;DHT22;9005;48.838;10.112;2023-04-06T13:10:11;22.90;15.00
17762;DHT22;9005;48.838;10.112;2023-04-06T13:12:37;22.40;15.80
17762;DHT22;9005;48.838;10.112;2023-04-06T13:15:05;22.20;15.50
17762;DHT22;9005;48.838;10.112;2023-04-06T13:17:32;21.30;16.00
17762;DHT22;9005;48.838;10.112;2023-04-06T13:20:00;21.40;16.00
17762;DHT22;9005;48.838;10.112;2023-04-06T13:22:27;20.80;15.80
17762;DHT22;9005;48.838;10.112;2023-04-06T13:24:54;19.80;16.00
17762;DHT22;9005;48.838;10.112;2023-04-06T13:27:21;20.00;16.30
17762;DHT22;9005;48.838;10.112;2023-04-06T13:29:47;21.00;15.90
17762;DHT22;9005;48.838;10.112;2023-04-06T13:32:14;20.80;16.00
17762;DHT22;9005;48.838;10.112;2023-04-06T13:34:41;20.70;15.70
17762;DHT22;9005;48.838;10.112;2023-04-06T13:37:11;20.80;16.10
17762;DHT22;9005;48.838;10.112;2023-04-06T13:39:38;21.50;15.90
17762;DHT22;9005;48.838;10.112;2023-04-06T13:42:05;22.60;15.90
17762;DHT22;9005;48.838;10.112;2023-04-06T13:44:32;23.60;15.00
17762;DHT22;9005;48.838;10.112;2023-04-06T13:46:58;23.80;15.10
17762;DHT22;9005;48.838;10.112;2023-04-06T13:49:25;23.40;14.50
17762;DHT22;9005;48.838;10.112;2023-04-06T13:51:52;22.90;15.00
17762;DHT22;9005;48.838;10.112;2023-04-06T13:54:21;22.90;15.30
17762;DHT22;9005;48.838;10.112;2023-04-06T13:56:47;22.60;15.10
17762;DHT22;9005;48.838;10.112;2023-04-06T13:59:14;22.10;15.90
17762;DHT22;9005;48.838;10.112;2023-04-06T14:01:41;21.90;15.10
17762;DHT22;9005;48.838;10.112;2023-04-06T14:04:07;21.70;16.00
17762;DHT22;9005;48.838;10.112;2023-04-06T14:06:34;22.30;15.50
17762;DHT22;9005;48.838;10.112;2023-04-06T14:09:01;22.60;15.80
17762;DHT22;9005;48.838;10.112;2023-04-06T14:11:29;22.50;14.60
17762;DHT22;9005;48.838;10.112;2023-04-06T14:13:57;21.60;16.00
17762;DHT22;9005;48.838;10.112;2023-04-06T14:16:24;21.40;15.20
17762;DHT22;9005;48.838;10.112;2023-04-06T14:18:50;21.40;15.50
17762;DHT22;9005;48.838;10.112;2023-04-06T14:21:17;21.90;15.10
17762;DHT22;9005;48.838;10.112;2023-04-06T14:23:45;22.60;14.70
17762;DHT22;9005;48.838;10.112;2023-04-06T14:26:12;22.70;14.30
17762;DHT22;9005;48.838;10.112;2023-04-06T14:28:40;22.40;14.80
17762;DHT22;9005;48.838;10.112;2023-04-06T14:31:10;22.10;15.50
17762;DHT22;9005;48.838;10.112;2023-04-06T14:33:38;22.10;15.40
17762;DHT22;9005;48.838;10.112;2023-04-06T14:36:06;21.60;15.10
17762;DHT22;9005;48.838;10.112;2023-04-06T14:38:33;20.40;15.90
17762;DHT22;9005;48.838;10.112;2023-04-06T14:41:01;19.80;16.00
17762;DHT22;9005;48.838;10.112;2023-04-06T14:43:27;19.70;16.80
17762;DHT22;9005;48.838;10.112;2023-04-06T14:45:59;19.80;16.90
17762;DHT22;9005;48.838;10.112;2023-04-06T14:48:26;19.70;16.60
17762;DHT22;9005;48.838;10.112;2023-04-06T14:50:54;19.30;17.10
17762;DHT22;9005;48.838;10.112;2023-04-06T14:53:21;19.50;16.80
17762;DHT22;9005;48.838;10.112;2023-04-06T14:55:48;19.80;17.00
17762;DHT22;9005;48.838;10.112;2023-04-06T14:58:16;20.30;16.50
17762;DHT22;9005;48.838;10.112;2023-04-06T15:00:43;20.10;16.20
17762;DHT22;9005;48.838;10.112;2023-04-06T15:03:11;19.50;16.80
17762;DHT22;9005;48.838;10.112;2023-04-06T15:05:38;19.50;16.70
17762;DHT22;9005;48.838;10.112;2023-04-06T15:08:05;20.00;16.30
17762;DHT22;9005;48.838;10.112;2023-04-06T15:10:32;20.20;16.00
17762;DHT22;9005;48.838;10.112;2023-04-06T15:12:59;20.00;16.60
17762;DHT22;9005;48.838;10.112;2023-04-06T15:15:26;20.10;17.00
17762;DHT22;9005;48.838;10.112;2023-04-06T15:17:53;19.70;16.60
17762;DHT22;9005;48.838;10.112;2023-04-06T15:20:21;19.50;17.30
17762;DHT22;9005;48.838;10.112;2023-04-06T15:22:47;19.40;17.40
17762;DHT22;9005;48.838;10.112;2023-04-06T15:25:14;19.30;17.10
17762;DHT22;9005;48.838;10.112;2023-04-06T15:27:41;19.20;17.10
17762;DHT22;9005;48.838;10.112;2023-04-06T15:30:08;18.90;17.80
17762;DHT22;9005;48.838;10.112;2023-04-06T15:32:35;18.60;18.30
17762;DHT22;9005;48.838;10.112;2023-04-06T15:35:09;18.40;17.30
17762;DHT22;9005;48.838;10.112;2023-04-06T15:37:37;18.30;17.90
17762;DHT22;9005;48.838;10.112;2023-04-06T15:40:05;18.40;17.80
17762;DHT22;9005;48.838;10.112;2023-04-06T15:42:32;18.80;18.10
17762;DHT22;9005;48.838;10.112;2023-04-06T15:44:59;18.90;16.90
17762;DHT22;9005;48.838;10.112;2023-04-06T15:47:26;18.70;17.10
17762;DHT22;9005;48.838;10.112;2023-04-06T15:49:52;18.40;17.00
17762;DHT22;9005;48.838;10.112;2023-04-06T15:52:19;17.90;18.20
17762;DHT22;9005;48.838;10.112;2023-04-06T15:54:48;17.90;18.50
17762;DHT22;9005;48.838;10.112;2023-04-06T15:57:15;17.90;18.30
17762;DHT22;9005;48.838;10.112;2023-04-06T15:59:42;17.90;18.20
17762;DHT22;9005;48.838;10.112;2023-04-06T16:02:09;17.70;17.60
17762;DHT22;9005;48.838;10.112;2023-04-06T16:04:36;17.70;18.20
17762;DHT22;9005;48.838;10.112;2023-04-06T16:07:03;17.50;18.70
17762;DHT22;9005;48.838;10.112;2023-04-06T16:09:29;17.20;17.80
17762;DHT22;9005;48.838;10.112;2023-04-06T16:11:57;16.60;17.20
17762;DHT22;9005;48.838;10.112;2023-04-06T16:14:25;15.80;18.00
17762;DHT22;9005;48.838;10.112;2023-04-06T16:16:52;15.20;18.40
17762;DHT22;9005;48.838;10.112;2023-04-06T16:19:19;14.80;18.50
17762;DHT22;9005;48.838;10.112;2023-04-06T16:39:01;13.60;20.60
17762;DHT22;9005;48.838;10.112;2023-04-06T16:41:27;13.20;22.20
17762;DHT22;9005;48.838;10.112;2023-04-06T16:43:55;12.70;21.50
17762;DHT22;9005;48.838;10.112;2023-04-06T16:46:28;12.60;22.50
17762;DHT22;9005;48.838;10.112;2023-04-06T16:48:55;12.50;23.00
17762;DHT22;9005;48.838;10.112;2023-04-06T16:51:22;12.40;22.90
17762;DHT22;9005;48.838;10.112;2023-04-06T16:53:49;12.30;23.00
17762;DHT22;9005;48.838;10.112;2023-04-06T16:56:15;12.20;23.90
17762;DHT22;9005;48.838;10.112;2023-04-06T16:58:42;12.20;23.80